Orlando, Florida
Traffic Map
Current Weather Conditions
Orlando, Florida
Clear
Clear
52°
Feels Like: 52°
Wind Chill: 52° Ceiling: Unl
Heat Index: 52° Visibility: 10mi
Dew Point: 44° Wind: 9mph
Humidity: 74% Direction: 350° (N)
Pressure: 30.11in Gusts: 0mph
Raw Report DataKORL 161253Z 35008KT 10SM CLR 11/07 A3011 RMK AO2 SLP202 T01110067
Traffic Incident Summary
Active as of:
Severity:
Category:
InformationThere was an issue retrieving the traffic information for this location. Please try a different location or try again shortly.
Advertisements
At Last! Intellicast now available for iPhone and Android